sensor_id;sensor_type;location;lat;lon;timestamp;P1;durP1;ratioP1;P2;durP2;ratioP2
8652;SDS011;4364;52.426;9.424;2023-09-18T00:00:29;9.03;;;6.80;;
8652;SDS011;4364;52.426;9.424;2023-09-18T00:02:56;10.03;;;7.33;;
8652;SDS011;4364;52.426;9.424;2023-09-18T00:05:23;7.67;;;6.87;;
8652;SDS011;4364;52.426;9.424;2023-09-18T00:07:49;7.83;;;6.70;;
8652;SDS011;4364;52.426;9.424;2023-09-18T00:10:16;8.63;;;7.10;;
8652;SDS011;4364;52.426;9.424;2023-09-18T00:12:43;9.00;;;6.93;;
8652;SDS011;4364;52.426;9.424;2023-09-18T00:15:10;8.90;;;7.20;;
8652;SDS011;4364;52.426;9.424;2023-09-18T00:17:36;11.00;;;6.63;;
8652;SDS011;4364;52.426;9.424;2023-09-18T00:20:03;7.90;;;6.67;;
8652;SDS011;4364;52.426;9.424;2023-09-18T00:22:33;7.90;;;6.20;;
8652;SDS011;4364;52.426;9.424;2023-09-18T00:25:00;7.77;;;6.20;;
8652;SDS011;4364;52.426;9.424;2023-09-18T00:27:29;8.00;;;5.90;;
8652;SDS011;4364;52.426;9.424;2023-09-18T00:29:55;7.87;;;6.63;;
8652;SDS011;4364;52.426;9.424;2023-09-18T00:32:22;6.43;;;5.83;;
8652;SDS011;4364;52.426;9.424;2023-09-18T00:34:49;7.03;;;6.33;;
8652;SDS011;4364;52.426;9.424;2023-09-18T00:37:15;8.13;;;6.40;;
8652;SDS011;4364;52.426;9.424;2023-09-18T00:39:43;9.43;;;6.77;;
8652;SDS011;4364;52.426;9.424;2023-09-18T00:42:10;9.10;;;6.73;;
8652;SDS011;4364;52.426;9.424;2023-09-18T00:44:42;7.80;;;6.83;;
8652;SDS011;4364;52.426;9.424;2023-09-18T00:47:08;8.47;;;6.43;;
8652;SDS011;4364;52.426;9.424;2023-09-18T00:49:36;7.97;;;6.57;;
8652;SDS011;4364;52.426;9.424;2023-09-18T00:52:04;6.53;;;5.83;;
8652;SDS011;4364;52.426;9.424;2023-09-18T00:54:32;7.00;;;6.27;;
8652;SDS011;4364;52.426;9.424;2023-09-18T00:56:59;6.27;;;5.63;;
8652;SDS011;4364;52.426;9.424;2023-09-18T00:59:28;7.67;;;5.93;;
8652;SDS011;4364;52.426;9.424;2023-09-18T01:01:54;8.87;;;6.03;;
8652;SDS011;4364;52.426;9.424;2023-09-18T01:04:21;8.10;;;6.50;;
8652;SDS011;4364;52.426;9.424;2023-09-18T01:06:48;6.80;;;6.10;;
8652;SDS011;4364;52.426;9.424;2023-09-18T01:09:18;11.07;;;6.40;;
8652;SDS011;4364;52.426;9.424;2023-09-18T01:12:03;9.37;;;5.93;;
8652;SDS011;4364;52.426;9.424;2023-09-18T01:14:57;7.53;;;6.10;;
8652;SDS011;4364;52.426;9.424;2023-09-18T01:17:37;7.90;;;6.27;;
8652;SDS011;4364;52.426;9.424;2023-09-18T01:20:10;8.97;;;6.63;;
8652;SDS011;4364;52.426;9.424;2023-09-18T01:22:38;7.57;;;6.30;;
8652;SDS011;4364;52.426;9.424;2023-09-18T01:25:04;7.43;;;6.63;;
8652;SDS011;4364;52.426;9.424;2023-09-18T01:27:32;8.20;;;6.37;;
8652;SDS011;4364;52.426;9.424;2023-09-18T01:29:59;9.03;;;6.93;;
8652;SDS011;4364;52.426;9.424;2023-09-18T01:32:26;9.07;;;7.00;;
8652;SDS011;4364;52.426;9.424;2023-09-18T01:34:57;9.23;;;6.43;;
8652;SDS011;4364;52.426;9.424;2023-09-18T01:37:26;10.70;;;6.67;;
8652;SDS011;4364;52.426;9.424;2023-09-18T01:39:54;9.67;;;6.87;;
8652;SDS011;4364;52.426;9.424;2023-09-18T01:42:26;7.03;;;6.40;;
8652;SDS011;4364;52.426;9.424;2023-09-18T01:44:54;7.37;;;6.67;;
8652;SDS011;4364;52.426;9.424;2023-09-18T01:47:21;7.13;;;6.27;;
8652;SDS011;4364;52.426;9.424;2023-09-18T01:49:53;12.13;;;7.37;;
8652;SDS011;4364;52.426;9.424;2023-09-18T01:52:20;7.80;;;6.93;;
8652;SDS011;4364;52.426;9.424;2023-09-18T01:54:47;8.80;;;6.97;;
8652;SDS011;4364;52.426;9.424;2023-09-18T01:57:14;8.87;;;6.47;;
8652;SDS011;4364;52.426;9.424;2023-09-18T01:59:40;9.07;;;7.10;;
8652;SDS011;4364;52.426;9.424;2023-09-18T02:02:08;11.90;;;7.00;;
8652;SDS011;4364;52.426;9.424;2023-09-18T02:04:37;7.73;;;6.93;;
8652;SDS011;4364;52.426;9.424;2023-09-18T02:07:24;9.03;;;6.47;;
8652;SDS011;4364;52.426;9.424;2023-09-18T02:09:50;9.77;;;6.93;;
8652;SDS011;4364;52.426;9.424;2023-09-18T02:12:17;7.57;;;6.70;;
8652;SDS011;4364;52.426;9.424;2023-09-18T02:14:45;7.83;;;6.73;;
8652;SDS011;4364;52.426;9.424;2023-09-18T02:17:12;9.63;;;7.10;;
8652;SDS011;4364;52.426;9.424;2023-09-18T02:19:39;8.43;;;6.87;;
8652;SDS011;4364;52.426;9.424;2023-09-18T02:22:06;7.93;;;6.10;;
8652;SDS011;4364;52.426;9.424;2023-09-18T02:24:33;8.63;;;6.80;;
8652;SDS011;4364;52.426;9.424;2023-09-18T02:27:00;10.30;;;6.70;;
8652;SDS011;4364;52.426;9.424;2023-09-18T02:29:30;8.90;;;6.30;;
8652;SDS011;4364;52.426;9.424;2023-09-18T02:31:57;7.63;;;6.83;;
8652;SDS011;4364;52.426;9.424;2023-09-18T02:34:24;10.07;;;6.83;;
8652;SDS011;4364;52.426;9.424;2023-09-18T02:36:51;6.90;;;6.10;;
8652;SDS011;4364;52.426;9.424;2023-09-18T02:39:17;7.77;;;6.87;;
8652;SDS011;4364;52.426;9.424;2023-09-18T02:41:44;8.37;;;7.13;;
8652;SDS011;4364;52.426;9.424;2023-09-18T02:44:10;7.63;;;6.83;;
8652;SDS011;4364;52.426;9.424;2023-09-18T02:46:37;9.40;;;7.03;;
8652;SDS011;4364;52.426;9.424;2023-09-18T02:49:05;8.53;;;6.97;;
8652;SDS011;4364;52.426;9.424;2023-09-18T02:51:33;8.67;;;6.60;;
8652;SDS011;4364;52.426;9.424;2023-09-18T02:53:59;7.70;;;6.90;;
8652;SDS011;4364;52.426;9.424;2023-09-18T02:56:26;7.97;;;7.13;;
8652;SDS011;4364;52.426;9.424;2023-09-18T02:58:53;8.20;;;6.80;;
8652;SDS011;4364;52.426;9.424;2023-09-18T03:01:20;9.23;;;7.17;;
8652;SDS011;4364;52.426;9.424;2023-09-18T03:03:47;8.50;;;7.50;;
8652;SDS011;4364;52.426;9.424;2023-09-18T03:06:13;10.00;;;7.30;;
8652;SDS011;4364;52.426;9.424;2023-09-18T03:08:40;9.43;;;6.57;;
8652;SDS011;4364;52.426;9.424;2023-09-18T03:11:16;9.80;;;7.63;;
8652;SDS011;4364;52.426;9.424;2023-09-18T03:13:43;8.20;;;6.93;;
8652;SDS011;4364;52.426;9.424;2023-09-18T03:16:16;8.90;;;7.00;;
8652;SDS011;4364;52.426;9.424;2023-09-18T03:18:45;10.33;;;7.60;;
8652;SDS011;4364;52.426;9.424;2023-09-18T03:21:11;10.37;;;7.40;;
8652;SDS011;4364;52.426;9.424;2023-09-18T03:23:38;8.03;;;6.80;;
8652;SDS011;4364;52.426;9.424;2023-09-18T03:26:05;8.37;;;7.33;;
8652;SDS011;4364;52.426;9.424;2023-09-18T03:28:31;8.53;;;6.80;;
8652;SDS011;4364;52.426;9.424;2023-09-18T03:30:58;8.33;;;6.93;;
8652;SDS011;4364;52.426;9.424;2023-09-18T03:33:25;9.73;;;6.17;;
8652;SDS011;4364;52.426;9.424;2023-09-18T03:35:52;9.70;;;7.13;;
8652;SDS011;4364;52.426;9.424;2023-09-18T03:38:24;9.20;;;6.93;;
8652;SDS011;4364;52.426;9.424;2023-09-18T03:40:52;8.90;;;7.00;;
8652;SDS011;4364;52.426;9.424;2023-09-18T03:43:19;9.40;;;6.87;;
8652;SDS011;4364;52.426;9.424;2023-09-18T03:45:46;9.53;;;7.17;;
8652;SDS011;4364;52.426;9.424;2023-09-18T03:48:13;8.07;;;6.93;;
8652;SDS011;4364;52.426;9.424;2023-09-18T03:50:40;8.80;;;6.23;;
8652;SDS011;4364;52.426;9.424;2023-09-18T03:53:07;8.77;;;6.90;;
8652;SDS011;4364;52.426;9.424;2023-09-18T03:55:34;9.03;;;6.97;;
8652;SDS011;4364;52.426;9.424;2023-09-18T03:58:01;8.13;;;6.83;;
8652;SDS011;4364;52.426;9.424;2023-09-18T04:00:28;10.40;;;6.90;;
8652;SDS011;4364;52.426;9.424;2023-09-18T04:02:54;8.27;;;6.37;;
8652;SDS011;4364;52.426;9.424;2023-09-18T04:05:21;8.80;;;6.77;;
8652;SDS011;4364;52.426;9.424;2023-09-18T04:07:48;8.33;;;6.30;;
8652;SDS011;4364;52.426;9.424;2023-09-18T04:10:14;9.30;;;6.53;;
8652;SDS011;4364;52.426;9.424;2023-09-18T04:12:50;7.73;;;6.23;;
8652;SDS011;4364;52.426;9.424;2023-09-18T04:15:18;7.40;;;6.67;;
8652;SDS011;4364;52.426;9.424;2023-09-18T04:17:46;7.23;;;6.53;;
8652;SDS011;4364;52.426;9.424;2023-09-18T04:20:13;9.23;;;6.60;;
8652;SDS011;4364;52.426;9.424;2023-09-18T04:22:44;8.40;;;6.67;;
8652;SDS011;4364;52.426;9.424;2023-09-18T04:25:16;9.43;;;6.73;;
8652;SDS011;4364;52.426;9.424;2023-09-18T04:27:46;10.83;;;6.93;;
8652;SDS011;4364;52.426;9.424;2023-09-18T04:30:16;8.17;;;6.73;;
8652;SDS011;4364;52.426;9.424;2023-09-18T04:32:45;9.27;;;7.30;;
8652;SDS011;4364;52.426;9.424;2023-09-18T04:35:13;7.87;;;6.70;;
8652;SDS011;4364;52.426;9.424;2023-09-18T04:37:40;8.40;;;6.20;;
8652;SDS011;4364;52.426;9.424;2023-09-18T04:40:07;7.93;;;6.87;;
8652;SDS011;4364;52.426;9.424;2023-09-18T04:42:39;7.43;;;6.43;;
8652;SDS011;4364;52.426;9.424;2023-09-18T04:45:06;7.73;;;6.93;;
8652;SDS011;4364;52.426;9.424;2023-09-18T04:47:33;9.17;;;7.17;;
8652;SDS011;4364;52.426;9.424;2023-09-18T04:50:01;6.93;;;6.23;;
8652;SDS011;4364;52.426;9.424;2023-09-18T04:52:36;7.57;;;6.60;;
8652;SDS011;4364;52.426;9.424;2023-09-18T04:55:03;9.43;;;6.90;;
8652;SDS011;4364;52.426;9.424;2023-09-18T04:57:32;7.60;;;6.83;;
8652;SDS011;4364;52.426;9.424;2023-09-18T04:59:59;6.97;;;6.27;;
8652;SDS011;4364;52.426;9.424;2023-09-18T05:02:42;7.70;;;6.40;;
8652;SDS011;4364;52.426;9.424;2023-09-18T05:05:09;7.07;;;6.20;;
8652;SDS011;4364;52.426;9.424;2023-09-18T05:07:35;7.10;;;6.40;;
8652;SDS011;4364;52.426;9.424;2023-09-18T05:10:04;7.13;;;6.30;;
8652;SDS011;4364;52.426;9.424;2023-09-18T05:12:31;7.17;;;6.47;;
8652;SDS011;4364;52.426;9.424;2023-09-18T05:14:58;7.53;;;6.07;;
8652;SDS011;4364;52.426;9.424;2023-09-18T05:17:39;6.93;;;6.23;;
8652;SDS011;4364;52.426;9.424;2023-09-18T05:20:11;8.67;;;6.30;;
8652;SDS011;4364;52.426;9.424;2023-09-18T05:22:40;8.97;;;6.53;;
8652;SDS011;4364;52.426;9.424;2023-09-18T05:25:06;7.43;;;6.73;;
8652;SDS011;4364;52.426;9.424;2023-09-18T05:27:34;6.57;;;5.97;;
8652;SDS011;4364;52.426;9.424;2023-09-18T05:30:00;9.30;;;6.00;;
8652;SDS011;4364;52.426;9.424;2023-09-18T05:32:29;8.37;;;6.47;;
8652;SDS011;4364;52.426;9.424;2023-09-18T05:34:56;6.77;;;6.07;;
8652;SDS011;4364;52.426;9.424;2023-09-18T05:37:29;8.87;;;6.93;;
8652;SDS011;4364;52.426;9.424;2023-09-18T05:39:55;7.90;;;6.67;;
8652;SDS011;4364;52.426;9.424;2023-09-18T05:42:22;7.33;;;6.63;;
8652;SDS011;4364;52.426;9.424;2023-09-18T05:44:48;7.30;;;6.53;;
8652;SDS011;4364;52.426;9.424;2023-09-18T05:47:15;6.83;;;6.13;;
8652;SDS011;4364;52.426;9.424;2023-09-18T05:49:42;7.53;;;6.73;;
8652;SDS011;4364;52.426;9.424;2023-09-18T05:52:09;7.50;;;6.63;;
8652;SDS011;4364;52.426;9.424;2023-09-18T05:54:35;7.63;;;6.43;;
8652;SDS011;4364;52.426;9.424;2023-09-18T05:57:03;7.17;;;6.07;;
8652;SDS011;4364;52.426;9.424;2023-09-18T05:59:30;7.70;;;6.90;;
8652;SDS011;4364;52.426;9.424;2023-09-18T06:01:57;8.53;;;6.57;;
8652;SDS011;4364;52.426;9.424;2023-09-18T06:04:23;7.23;;;6.50;;
8652;SDS011;4364;52.426;9.424;2023-09-18T06:06:50;7.13;;;6.43;;
8652;SDS011;4364;52.426;9.424;2023-09-18T06:09:17;9.03;;;6.33;;
8652;SDS011;4364;52.426;9.424;2023-09-18T06:11:44;7.13;;;6.40;;
8652;SDS011;4364;52.426;9.424;2023-09-18T06:14:11;8.00;;;6.87;;
8652;SDS011;4364;52.426;9.424;2023-09-18T06:16:38;8.67;;;7.07;;
8652;SDS011;4364;52.426;9.424;2023-09-18T06:19:04;7.13;;;6.43;;
8652;SDS011;4364;52.426;9.424;2023-09-18T06:21:31;6.63;;;6.03;;
8652;SDS011;4364;52.426;9.424;2023-09-18T06:23:57;6.70;;;6.00;;
8652;SDS011;4364;52.426;9.424;2023-09-18T06:26:24;7.60;;;6.30;;
8652;SDS011;4364;52.426;9.424;2023-09-18T06:28:51;7.63;;;6.40;;
8652;SDS011;4364;52.426;9.424;2023-09-18T06:31:22;9.33;;;6.40;;
8652;SDS011;4364;52.426;9.424;2023-09-18T06:33:49;6.97;;;6.20;;
8652;SDS011;4364;52.426;9.424;2023-09-18T06:36:16;7.03;;;6.23;;
8652;SDS011;4364;52.426;9.424;2023-09-18T06:38:43;9.50;;;6.77;;
8652;SDS011;4364;52.426;9.424;2023-09-18T06:41:09;8.00;;;6.87;;
8652;SDS011;4364;52.426;9.424;2023-09-18T06:43:36;8.80;;;6.23;;
8652;SDS011;4364;52.426;9.424;2023-09-18T06:46:02;7.57;;;6.47;;
8652;SDS011;4364;52.426;9.424;2023-09-18T06:48:29;10.10;;;6.60;;
8652;SDS011;4364;52.426;9.424;2023-09-18T06:50:59;8.03;;;6.40;;
8652;SDS011;4364;52.426;9.424;2023-09-18T06:53:28;6.30;;;5.70;;
8652;SDS011;4364;52.426;9.424;2023-09-18T06:55:55;6.57;;;5.90;;
8652;SDS011;4364;52.426;9.424;2023-09-18T06:58:21;6.07;;;5.50;;
8652;SDS011;4364;52.426;9.424;2023-09-18T07:00:48;10.20;;;6.00;;
8652;SDS011;4364;52.426;9.424;2023-09-18T07:03:16;7.47;;;6.23;;
8652;SDS011;4364;52.426;9.424;2023-09-18T07:05:45;6.73;;;5.47;;
8652;SDS011;4364;52.426;9.424;2023-09-18T07:08:12;7.90;;;5.60;;
8652;SDS011;4364;52.426;9.424;2023-09-18T07:10:39;6.57;;;5.83;;
8652;SDS011;4364;52.426;9.424;2023-09-18T07:13:06;6.63;;;5.70;;
8652;SDS011;4364;52.426;9.424;2023-09-18T07:15:32;6.00;;;5.40;;
8652;SDS011;4364;52.426;9.424;2023-09-18T07:17:59;5.50;;;5.00;;
8652;SDS011;4364;52.426;9.424;2023-09-18T07:20:26;6.70;;;5.33;;
8652;SDS011;4364;52.426;9.424;2023-09-18T07:22:52;7.30;;;5.57;;
8652;SDS011;4364;52.426;9.424;2023-09-18T07:25:19;6.80;;;5.17;;
8652;SDS011;4364;52.426;9.424;2023-09-18T07:27:45;6.00;;;5.40;;
8652;SDS011;4364;52.426;9.424;2023-09-18T07:30:13;6.37;;;5.37;;
8652;SDS011;4364;52.426;9.424;2023-09-18T07:32:43;8.27;;;5.20;;
8652;SDS011;4364;52.426;9.424;2023-09-18T07:35:10;6.13;;;5.00;;
8652;SDS011;4364;52.426;9.424;2023-09-18T07:37:37;7.03;;;4.93;;
8652;SDS011;4364;52.426;9.424;2023-09-18T07:40:06;8.00;;;5.47;;
8652;SDS011;4364;52.426;9.424;2023-09-18T07:42:33;8.47;;;5.43;;
8652;SDS011;4364;52.426;9.424;2023-09-18T07:44:59;7.03;;;5.00;;
8652;SDS011;4364;52.426;9.424;2023-09-18T07:47:27;9.83;;;5.40;;
8652;SDS011;4364;52.426;9.424;2023-09-18T07:49:55;7.43;;;5.53;;
8652;SDS011;4364;52.426;9.424;2023-09-18T07:52:23;9.77;;;5.43;;
8652;SDS011;4364;52.426;9.424;2023-09-18T07:54:49;8.40;;;5.73;;
8652;SDS011;4364;52.426;9.424;2023-09-18T07:57:16;7.57;;;4.63;;
8652;SDS011;4364;52.426;9.424;2023-09-18T07:59:43;7.70;;;5.40;;
8652;SDS011;4364;52.426;9.424;2023-09-18T08:02:10;9.53;;;5.30;;
8652;SDS011;4364;52.426;9.424;2023-09-18T08:04:37;6.33;;;5.13;;
8652;SDS011;4364;52.426;9.424;2023-09-18T08:07:03;9.17;;;4.97;;
8652;SDS011;4364;52.426;9.424;2023-09-18T08:09:33;7.20;;;5.23;;
8652;SDS011;4364;52.426;9.424;2023-09-18T08:12:03;8.97;;;5.20;;
8652;SDS011;4364;52.426;9.424;2023-09-18T08:14:30;9.13;;;5.27;;
8652;SDS011;4364;52.426;9.424;2023-09-18T08:17:00;6.70;;;5.03;;
8652;SDS011;4364;52.426;9.424;2023-09-18T08:19:29;9.37;;;5.70;;
8652;SDS011;4364;52.426;9.424;2023-09-18T08:21:55;7.77;;;5.20;;
8652;SDS011;4364;52.426;9.424;2023-09-18T08:24:22;7.70;;;5.67;;
8652;SDS011;4364;52.426;9.424;2023-09-18T08:26:49;10.03;;;5.10;;
8652;SDS011;4364;52.426;9.424;2023-09-18T08:29:16;7.57;;;4.90;;
8652;SDS011;4364;52.426;9.424;2023-09-18T08:31:44;9.37;;;4.83;;
8652;SDS011;4364;52.426;9.424;2023-09-18T08:34:11;9.73;;;5.23;;
8652;SDS011;4364;52.426;9.424;2023-09-18T08:36:38;9.23;;;5.07;;
8652;SDS011;4364;52.426;9.424;2023-09-18T08:39:04;9.53;;;5.10;;
8652;SDS011;4364;52.426;9.424;2023-09-18T08:41:34;7.57;;;4.87;;
8652;SDS011;4364;52.426;9.424;2023-09-18T08:44:06;8.57;;;5.07;;
8652;SDS011;4364;52.426;9.424;2023-09-18T08:46:34;10.33;;;4.90;;
8652;SDS011;4364;52.426;9.424;2023-09-18T08:49:01;8.60;;;4.73;;
8652;SDS011;4364;52.426;9.424;2023-09-18T08:51:28;10.97;;;4.83;;
8652;SDS011;4364;52.426;9.424;2023-09-18T08:53:55;11.03;;;5.20;;
8652;SDS011;4364;52.426;9.424;2023-09-18T08:56:22;8.33;;;5.03;;
8652;SDS011;4364;52.426;9.424;2023-09-18T08:58:50;11.33;;;5.00;;
8652;SDS011;4364;52.426;9.424;2023-09-18T09:01:18;12.97;;;5.40;;
8652;SDS011;4364;52.426;9.424;2023-09-18T09:03:45;18.17;;;6.13;;
8652;SDS011;4364;52.426;9.424;2023-09-18T09:06:12;12.37;;;5.43;;
8652;SDS011;4364;52.426;9.424;2023-09-18T09:08:39;12.23;;;4.90;;
8652;SDS011;4364;52.426;9.424;2023-09-18T09:11:06;7.97;;;4.67;;
8652;SDS011;4364;52.426;9.424;2023-09-18T09:13:32;7.03;;;4.57;;
8652;SDS011;4364;52.426;9.424;2023-09-18T09:16:07;14.83;;;5.23;;
8652;SDS011;4364;52.426;9.424;2023-09-18T09:18:46;12.00;;;5.37;;
8652;SDS011;4364;52.426;9.424;2023-09-18T09:21:18;13.00;;;5.43;;
8652;SDS011;4364;52.426;9.424;2023-09-18T09:23:49;17.03;;;5.10;;
8652;SDS011;4364;52.426;9.424;2023-09-18T09:26:20;15.37;;;5.57;;
8652;SDS011;4364;52.426;9.424;2023-09-18T09:28:49;9.77;;;4.70;;
8652;SDS011;4364;52.426;9.424;2023-09-18T09:31:26;7.47;;;4.60;;
8652;SDS011;4364;52.426;9.424;2023-09-18T09:33:55;11.30;;;5.07;;
8652;SDS011;4364;52.426;9.424;2023-09-18T09:36:22;17.87;;;5.50;;
8652;SDS011;4364;52.426;9.424;2023-09-18T09:38:57;12.47;;;4.57;;
8652;SDS011;4364;52.426;9.424;2023-09-18T09:41:25;12.87;;;5.10;;
8652;SDS011;4364;52.426;9.424;2023-09-18T09:43:54;10.13;;;4.10;;
8652;SDS011;4364;52.426;9.424;2023-09-18T09:46:22;16.30;;;5.40;;
8652;SDS011;4364;52.426;9.424;2023-09-18T09:49:01;8.23;;;4.23;;
8652;SDS011;4364;52.426;9.424;2023-09-18T09:51:32;9.30;;;4.13;;
8652;SDS011;4364;52.426;9.424;2023-09-18T09:54:00;7.97;;;4.03;;
8652;SDS011;4364;52.426;9.424;2023-09-18T09:56:47;9.53;;;4.13;;
8652;SDS011;4364;52.426;9.424;2023-09-18T09:59:18;8.83;;;4.20;;
8652;SDS011;4364;52.426;9.424;2023-09-18T10:01:48;7.03;;;4.30;;
8652;SDS011;4364;52.426;9.424;2023-09-18T10:04:17;9.13;;;4.60;;
8652;SDS011;4364;52.426;9.424;2023-09-18T10:06:52;7.97;;;4.43;;
8652;SDS011;4364;52.426;9.424;2023-09-18T10:09:26;8.50;;;4.50;;
8652;SDS011;4364;52.426;9.424;2023-09-18T10:11:56;7.13;;;4.43;;
8652;SDS011;4364;52.426;9.424;2023-09-18T10:14:31;8.63;;;4.53;;
8652;SDS011;4364;52.426;9.424;2023-09-18T10:17:21;8.00;;;4.00;;
8652;SDS011;4364;52.426;9.424;2023-09-18T10:20:01;9.40;;;4.40;;
8652;SDS011;4364;52.426;9.424;2023-09-18T10:22:38;7.53;;;3.87;;
8652;SDS011;4364;52.426;9.424;2023-09-18T10:25:19;8.47;;;4.17;;
8652;SDS011;4364;52.426;9.424;2023-09-18T10:27:49;12.50;;;4.40;;
8652;SDS011;4364;52.426;9.424;2023-09-18T10:30:20;8.10;;;3.80;;
8652;SDS011;4364;52.426;9.424;2023-09-18T10:32:50;11.07;;;4.10;;
8652;SDS011;4364;52.426;9.424;2023-09-18T10:35:17;7.77;;;3.40;;
8652;SDS011;4364;52.426;9.424;2023-09-18T10:37:46;7.37;;;3.30;;
8652;SDS011;4364;52.426;9.424;2023-09-18T10:40:14;7.50;;;3.20;;
8652;SDS011;4364;52.426;9.424;2023-09-18T10:42:42;7.17;;;3.03;;
8652;SDS011;4364;52.426;9.424;2023-09-18T10:45:09;7.43;;;2.80;;
8652;SDS011;4364;52.426;9.424;2023-09-18T10:47:40;7.27;;;2.87;;
8652;SDS011;4364;52.426;9.424;2023-09-18T10:50:09;4.13;;;2.70;;
8652;SDS011;4364;52.426;9.424;2023-09-18T10:52:36;6.30;;;2.90;;
8652;SDS011;4364;52.426;9.424;2023-09-18T10:55:12;5.80;;;2.73;;
8652;SDS011;4364;52.426;9.424;2023-09-18T10:57:50;5.07;;;2.80;;
8652;SDS011;4364;52.426;9.424;2023-09-18T11:00:18;5.40;;;3.00;;
8652;SDS011;4364;52.426;9.424;2023-09-18T11:02:51;5.87;;;2.60;;
8652;SDS011;4364;52.426;9.424;2023-09-18T11:05:28;7.23;;;2.87;;
8652;SDS011;4364;52.426;9.424;2023-09-18T11:11:08;7.83;;;2.93;;
8652;SDS011;4364;52.426;9.424;2023-09-18T11:13:41;5.23;;;2.63;;
8652;SDS011;4364;52.426;9.424;2023-09-18T11:16:16;4.33;;;2.50;;
8652;SDS011;4364;52.426;9.424;2023-09-18T11:21:30;5.53;;;2.40;;
8652;SDS011;4364;52.426;9.424;2023-09-18T11:24:01;7.67;;;2.77;;
8652;SDS011;4364;52.426;9.424;2023-09-18T11:26:33;5.33;;;2.40;;
8652;SDS011;4364;52.426;9.424;2023-09-18T11:29:01;6.93;;;2.50;;
8652;SDS011;4364;52.426;9.424;2023-09-18T11:31:41;5.23;;;2.60;;
8652;SDS011;4364;52.426;9.424;2023-09-18T11:34:19;4.73;;;2.50;;
8652;SDS011;4364;52.426;9.424;2023-09-18T11:36:48;6.93;;;2.80;;
8652;SDS011;4364;52.426;9.424;2023-09-18T11:44:45;3.93;;;2.37;;
8652;SDS011;4364;52.426;9.424;2023-09-18T11:47:17;5.67;;;2.50;;
8652;SDS011;4364;52.426;9.424;2023-09-18T11:50:04;6.37;;;2.20;;
8652;SDS011;4364;52.426;9.424;2023-09-18T11:52:37;5.07;;;2.20;;
8652;SDS011;4364;52.426;9.424;2023-09-18T11:55:08;5.73;;;2.63;;
8652;SDS011;4364;52.426;9.424;2023-09-18T11:57:37;5.13;;;2.50;;
8652;SDS011;4364;52.426;9.424;2023-09-18T12:00:04;4.73;;;2.47;;
8652;SDS011;4364;52.426;9.424;2023-09-18T12:02:38;3.80;;;2.37;;
8652;SDS011;4364;52.426;9.424;2023-09-18T12:05:11;3.47;;;2.20;;
8652;SDS011;4364;52.426;9.424;2023-09-18T12:07:45;6.47;;;2.63;;
8652;SDS011;4364;52.426;9.424;2023-09-18T12:10:14;6.53;;;2.40;;
8652;SDS011;4364;52.426;9.424;2023-09-18T12:12:43;3.60;;;2.30;;
8652;SDS011;4364;52.426;9.424;2023-09-18T12:15:11;5.90;;;2.70;;
8652;SDS011;4364;52.426;9.424;2023-09-18T12:17:38;5.10;;;2.60;;
8652;SDS011;4364;52.426;9.424;2023-09-18T12:20:05;5.50;;;2.50;;
8652;SDS011;4364;52.426;9.424;2023-09-18T12:22:32;3.40;;;2.13;;
8652;SDS011;4364;52.426;9.424;2023-09-18T12:25:08;4.50;;;2.33;;
8652;SDS011;4364;52.426;9.424;2023-09-18T12:27:42;5.50;;;2.83;;
8652;SDS011;4364;52.426;9.424;2023-09-18T12:30:08;4.80;;;2.40;;
8652;SDS011;4364;52.426;9.424;2023-09-18T12:32:36;3.20;;;2.30;;
8652;SDS011;4364;52.426;9.424;2023-09-18T12:35:05;4.50;;;2.13;;
8652;SDS011;4364;52.426;9.424;2023-09-18T12:37:34;3.70;;;2.30;;
8652;SDS011;4364;52.426;9.424;2023-09-18T12:40:01;6.00;;;2.20;;
8652;SDS011;4364;52.426;9.424;2023-09-18T12:42:34;3.03;;;2.13;;
8652;SDS011;4364;52.426;9.424;2023-09-18T12:45:01;3.77;;;2.03;;
8652;SDS011;4364;52.426;9.424;2023-09-18T12:47:29;7.67;;;2.40;;
8652;SDS011;4364;52.426;9.424;2023-09-18T12:50:01;5.47;;;2.30;;
8652;SDS011;4364;52.426;9.424;2023-09-18T12:52:31;5.53;;;2.47;;
8652;SDS011;4364;52.426;9.424;2023-09-18T12:54:58;3.03;;;1.93;;
8652;SDS011;4364;52.426;9.424;2023-09-18T12:57:27;4.83;;;2.37;;
8652;SDS011;4364;52.426;9.424;2023-09-18T12:59:54;4.70;;;2.20;;
8652;SDS011;4364;52.426;9.424;2023-09-18T13:02:21;6.50;;;2.40;;
8652;SDS011;4364;52.426;9.424;2023-09-18T13:04:55;4.40;;;2.30;;
8652;SDS011;4364;52.426;9.424;2023-09-18T13:07:23;3.57;;;2.10;;
8652;SDS011;4364;52.426;9.424;2023-09-18T13:10:00;5.97;;;2.23;;
8652;SDS011;4364;52.426;9.424;2023-09-18T13:12:38;4.03;;;2.00;;
8652;SDS011;4364;52.426;9.424;2023-09-18T13:15:30;4.40;;;2.00;;
8652;SDS011;4364;52.426;9.424;2023-09-18T13:17:59;6.50;;;2.67;;
8652;SDS011;4364;52.426;9.424;2023-09-18T13:20:28;3.50;;;2.17;;
8652;SDS011;4364;52.426;9.424;2023-09-18T13:22:56;5.57;;;2.50;;
8652;SDS011;4364;52.426;9.424;2023-09-18T13:25:31;3.23;;;2.00;;
8652;SDS011;4364;52.426;9.424;2023-09-18T13:28:02;4.17;;;2.33;;
8652;SDS011;4364;52.426;9.424;2023-09-18T13:30:30;5.43;;;2.30;;
8652;SDS011;4364;52.426;9.424;2023-09-18T13:33:03;6.33;;;2.50;;
8652;SDS011;4364;52.426;9.424;2023-09-18T13:35:43;6.60;;;2.20;;
8652;SDS011;4364;52.426;9.424;2023-09-18T13:38:10;5.67;;;2.10;;
8652;SDS011;4364;52.426;9.424;2023-09-18T13:40:41;4.23;;;2.20;;
8652;SDS011;4364;52.426;9.424;2023-09-18T13:43:08;5.40;;;2.20;;
8652;SDS011;4364;52.426;9.424;2023-09-18T13:45:35;3.57;;;2.00;;
8652;SDS011;4364;52.426;9.424;2023-09-18T13:48:03;4.87;;;2.27;;
8652;SDS011;4364;52.426;9.424;2023-09-18T13:50:31;5.43;;;2.10;;
8652;SDS011;4364;52.426;9.424;2023-09-18T13:52:58;3.07;;;2.27;;
8652;SDS011;4364;52.426;9.424;2023-09-18T13:55:29;4.20;;;2.30;;
8652;SDS011;4364;52.426;9.424;2023-09-18T13:57:56;4.20;;;2.27;;
8652;SDS011;4364;52.426;9.424;2023-09-18T14:00:23;5.93;;;2.27;;
8652;SDS011;4364;52.426;9.424;2023-09-18T14:02:51;4.37;;;2.20;;
8652;SDS011;4364;52.426;9.424;2023-09-18T14:05:18;4.23;;;2.03;;
8652;SDS011;4364;52.426;9.424;2023-09-18T14:07:46;4.30;;;2.00;;
8652;SDS011;4364;52.426;9.424;2023-09-18T14:10:14;6.23;;;2.10;;
8652;SDS011;4364;52.426;9.424;2023-09-18T14:12:43;4.00;;;1.90;;
8652;SDS011;4364;52.426;9.424;2023-09-18T14:15:09;5.73;;;2.10;;
8652;SDS011;4364;52.426;9.424;2023-09-18T14:17:36;5.60;;;2.10;;
8652;SDS011;4364;52.426;9.424;2023-09-18T14:20:04;3.70;;;1.93;;
8652;SDS011;4364;52.426;9.424;2023-09-18T14:22:33;5.00;;;2.30;;
8652;SDS011;4364;52.426;9.424;2023-09-18T14:25:01;4.27;;;2.00;;
8652;SDS011;4364;52.426;9.424;2023-09-18T14:27:33;4.43;;;2.47;;
8652;SDS011;4364;52.426;9.424;2023-09-18T14:30:01;2.93;;;1.80;;
8652;SDS011;4364;52.426;9.424;2023-09-18T14:32:32;4.57;;;2.30;;
8652;SDS011;4364;52.426;9.424;2023-09-18T14:35:02;4.43;;;2.50;;
8652;SDS011;4364;52.426;9.424;2023-09-18T14:37:31;4.97;;;2.40;;
8652;SDS011;4364;52.426;9.424;2023-09-18T14:39:58;5.97;;;2.13;;
8652;SDS011;4364;52.426;9.424;2023-09-18T14:42:24;4.70;;;2.07;;
8652;SDS011;4364;52.426;9.424;2023-09-18T14:44:51;4.90;;;2.07;;
8652;SDS011;4364;52.426;9.424;2023-09-18T14:47:17;4.17;;;1.90;;
8652;SDS011;4364;52.426;9.424;2023-09-18T14:49:50;3.73;;;2.13;;
8652;SDS011;4364;52.426;9.424;2023-09-18T14:52:16;3.30;;;1.90;;
8652;SDS011;4364;52.426;9.424;2023-09-18T14:54:44;2.60;;;1.80;;
8652;SDS011;4364;52.426;9.424;2023-09-18T14:57:11;2.53;;;1.80;;
8652;SDS011;4364;52.426;9.424;2023-09-18T14:59:37;4.33;;;2.23;;
8652;SDS011;4364;52.426;9.424;2023-09-18T15:02:08;6.20;;;2.47;;
8652;SDS011;4364;52.426;9.424;2023-09-18T15:04:34;4.70;;;2.37;;
8652;SDS011;4364;52.426;9.424;2023-09-18T15:07:02;4.33;;;2.40;;
8652;SDS011;4364;52.426;9.424;2023-09-18T15:09:29;4.93;;;2.43;;
8652;SDS011;4364;52.426;9.424;2023-09-18T15:11:55;4.00;;;2.17;;
8652;SDS011;4364;52.426;9.424;2023-09-18T15:14:22;3.80;;;1.90;;
8652;SDS011;4364;52.426;9.424;2023-09-18T15:16:48;6.93;;;2.27;;
8652;SDS011;4364;52.426;9.424;2023-09-18T15:19:15;4.03;;;2.43;;
8652;SDS011;4364;52.426;9.424;2023-09-18T15:21:46;4.30;;;2.27;;
8652;SDS011;4364;52.426;9.424;2023-09-18T15:24:13;4.80;;;1.80;;
8652;SDS011;4364;52.426;9.424;2023-09-18T15:26:39;5.03;;;2.30;;
8652;SDS011;4364;52.426;9.424;2023-09-18T15:29:06;5.63;;;2.10;;
8652;SDS011;4364;52.426;9.424;2023-09-18T15:31:34;3.90;;;1.93;;
8652;SDS011;4364;52.426;9.424;2023-09-18T15:34:01;5.67;;;2.10;;
8652;SDS011;4364;52.426;9.424;2023-09-18T15:36:28;3.33;;;2.17;;